Time;durP1;ratioP1;P1;durP2;ratioP2;P2;SDS_P1;SDS_P2;PMS_P1;PMS_P2;Temp;Humidity;BMP_temperature;BMP_pressure;BME280_temperature;BME280_humidity;BME280_pressure;Samples;Min_cycle;Max_cycle;Signal;HPM_P1;HPM_P2
2023/02/04 00:01:56;;;;;;;1.58;0.57;;;;;;;6.37;64.31;101003.88;4994381;28;20036;-90
2023/02/04 00:04:21;;;;;;;0.20;0.20;;;;;;;6.31;64.45;101001.47;4994610;28;20088;-91
2023/02/04 00:06:47;;;;;;;0.70;0.43;;;;;;;6.24;64.80;101002.50;4977474;28;20485;-90
2023/02/04 00:09:15;;;;;;;0.40;0.20;;;;;;;6.12;65.27;100992.53;4978318;28;20034;-90
2023/02/04 00:11:41;;;;;;;0.55;0.55;;;;;;;6.13;65.52;100994.22;4978478;28;20424;-91
2023/02/04 00:14:06;;;;;;;0.20;0.20;;;;;;;6.04;65.77;100991.00;4978154;28;20053;-89
2023/02/04 00:16:31;;;;;;;0.50;0.50;;;;;;;6.07;66.04;100989.22;4977940;28;20033;-89
2023/02/04 00:18:57;;;;;;;0.40;0.40;;;;;;;6.07;66.07;100981.53;4978022;28;20033;-91
2023/02/04 00:21:22;;;;;;;1.10;0.30;;;;;;;6.06;66.19;100977.28;4993286;28;20421;-91
2023/02/04 00:23:50;;;;;;;1.48;0.57;;;;;;;5.93;66.35;100967.31;4977956;28;20034;-91
2023/02/04 00:26:15;;;;;;;0.30;0.30;;;;;;;5.99;66.41;100969.72;4978244;28;20493;-92
2023/02/04 00:28:41;;;;;;;0.20;0.20;;;;;;;6.06;66.25;100970.41;4993954;28;20124;-91
2023/02/04 00:31:06;;;;;;;0.60;0.47;;;;;;;6.02;66.64;100967.09;4993958;28;20033;-90
2023/02/04 00:33:32;;;;;;;0.30;0.30;;;;;;;5.97;66.39;100953.50;4977407;28;20092;-90
2023/02/04 00:35:57;;;;;;;0.45;0.35;;;;;;;6.04;66.74;100955.03;4993824;28;20088;-91
2023/02/04 00:38:23;;;;;;;0.40;0.35;;;;;;;6.06;66.53;100937.03;4977921;28;20034;-90
2023/02/04 00:40:48;;;;;;;0.60;0.60;;;;;;;5.98;66.42;100947.47;4994258;28;20029;-90
2023/02/04 00:43:14;;;;;;;0.40;0.40;;;;;;;6.08;66.06;100949.81;4977892;28;20080;-91
2023/02/04 00:45:39;;;;;;;0.20;0.20;;;;;;;6.12;65.99;100943.75;4977521;28;20543;-90
2023/02/04 00:48:05;;;;;;;0.40;0.38;;;;;;;6.12;65.59;100928.31;4993998;28;20037;-91
2023/02/04 00:50:30;;;;;;;0.30;0.30;;;;;;;6.11;65.83;100934.34;4993715;28;20025;-90
2023/02/04 00:52:58;;;;;;;0.43;0.30;;;;;;;6.03;65.52;100912.28;4977791;28;20066;-90
2023/02/04 00:55:23;;;;;;;0.38;0.38;;;;;;;5.92;65.84;100911.69;4977705;28;20030;-90
2023/02/04 00:57:50;;;;;;;0.40;0.40;;;;;;;6.10;65.43;100919.81;4993746;28;20030;-91
2023/02/04 01:00:16;;;;;;;0.40;0.40;;;;;;;5.95;65.76;100891.06;4993895;28;20172;-89
2023/02/04 01:02:41;;;;;;;0.30;0.30;;;;;;;5.90;66.02;100910.91;4993790;28;20471;-90
2023/02/04 01:05:07;;;;;;;0.40;0.40;;;;;;;5.94;65.73;100897.09;4977165;28;20033;-89
2023/02/04 01:07:33;;;;;;;0.98;0.50;;;;;;;5.85;66.42;100899.84;4977448;28;20037;-89
2023/02/04 01:09:58;;;;;;;1.58;0.57;;;;;;;5.84;66.09;100875.06;4977495;28;20405;-90
2023/02/04 01:12:26;;;;;;;0.52;0.45;;;;;;;5.80;66.36;100880.28;4993282;28;20041;-89
2023/02/04 01:14:52;;;;;;;0.50;0.50;;;;;;;5.79;65.95;100871.75;4977832;28;20022;-90
2023/02/04 01:17:18;;;;;;;0.28;0.28;;;;;;;5.97;65.70;100875.63;4993963;28;20026;-90
2023/02/04 01:19:44;;;;;;;0.50;0.50;;;;;;;5.94;66.01;100875.72;4992983;28;20072;-90
2023/02/04 01:22:09;;;;;;;0.47;0.47;;;;;;;6.01;66.19;100879.81;4993588;28;20030;-91
2023/02/04 01:24:35;;;;;;;1.05;1.05;;;;;;;6.04;65.68;100870.28;4993431;28;20030;-89
2023/02/04 01:27:00;;;;;;;2.83;0.65;;;;;;;5.95;65.52;100847.41;4961181;28;20097;-90
2023/02/04 01:29:26;;;;;;;0.70;0.70;;;;;;;5.92;65.56;100837.22;4976996;28;20045;-90
2023/02/04 01:31:51;;;;;;;0.30;0.30;;;;;;;5.96;65.56;100838.81;4977133;28;20030;-89
2023/02/04 01:34:17;;;;;;;2.20;1.08;;;;;;;6.06;65.38;100844.56;4993484;28;20474;-89
2023/02/04 01:36:42;;;;;;;0.28;0.28;;;;;;;5.97;65.49;100852.50;4977134;28;20061;-90
2023/02/04 01:39:08;;;;;;;0.50;0.50;;;;;;;5.90;65.31;100843.22;4976986;28;20417;-90
2023/02/04 01:41:33;;;;;;;1.30;0.95;;;;;;;5.89;65.39;100842.41;4993163;28;20057;-90
2023/02/04 01:43:59;;;;;;;0.20;0.20;;;;;;;5.77;65.40;100824.75;4993158;28;20044;-90
2023/02/04 01:46:24;;;;;;;0.40;0.40;;;;;;;5.99;65.43;100854.13;4979823;28;20030;-90
2023/02/04 01:48:50;;;;;;;0.20;0.20;;;;;;;6.04;65.20;100849.75;4980387;28;20492;-90
2023/02/04 01:51:16;;;;;;;0.32;0.30;;;;;;;6.02;65.02;100846.38;4996453;28;20103;-89
2023/02/04 01:53:41;;;;;;;0.40;0.40;;;;;;;5.96;65.23;100837.97;4996577;28;20033;-90
2023/02/04 01:56:26;;;;;;;0.47;0.40;;;;;;;6.09;65.08;100848.75;4980440;28;20030;-90
2023/02/04 01:58:52;;;;;;;0.73;0.47;;;;;;;6.06;65.23;100839.41;4996799;28;20113;-90
2023/02/04 02:01:40;;;;;;;0.30;0.30;;;;;;;6.04;65.56;100833.50;4996524;28;20481;-90
2023/02/04 02:04:07;;;;;;;0.70;0.70;;;;;;;6.00;65.94;100843.00;4980655;28;20578;-91
2023/02/04 02:06:33;;;;;;;0.55;0.38;;;;;;;6.04;65.58;100836.06;4980133;28;20029;-90
2023/02/04 02:08:58;;;;;;;1.25;0.52;;;;;;;5.91;66.05;100832.97;4979843;28;20026;-90
2023/02/04 02:11:25;;;;;;;0.30;0.30;;;;;;;6.08;65.55;100847.06;4979975;28;20095;-89
2023/02/04 02:13:50;;;;;;;0.73;0.73;;;;;;;5.87;65.65;100797.94;4979800;28;20123;-90
2023/02/04 02:16:16;;;;;;;0.43;0.43;;;;;;;6.07;66.14;100835.13;4996110;28;20489;-89
2023/02/04 02:18:42;;;;;;;1.20;0.60;;;;;;;6.10;65.95;100847.91;4996202;28;20018;-89
2023/02/04 02:21:08;;;;;;;1.15;0.98;;;;;;;6.04;66.00;100836.06;4995997;28;20030;-89
2023/02/04 02:23:42;;;;;;;0.40;0.40;;;;;;;6.03;66.25;100845.50;4996320;28;20053;-90
2023/02/04 02:26:08;;;;;;;0.98;0.73;;;;;;;6.00;66.30;100843.00;4995980;28;20109;-89
2023/02/04 02:28:33;;;;;;;5.38;0.57;;;;;;;5.96;66.72;100851.66;4979764;28;20077;-89
2023/02/04 02:30:59;;;;;;;0.45;0.30;;;;;;;5.81;66.83;100825.53;4995962;28;20037;-90
2023/02/04 02:33:25;;;;;;;0.65;0.47;;;;;;;5.90;67.01;100854.41;4995940;28;20615;-90
2023/02/04 02:35:50;;;;;;;0.65;0.47;;;;;;;5.89;67.04;100855.22;4995849;28;20022;-89
2023/02/04 02:38:16;;;;;;;0.40;0.40;;;;;;;5.99;66.96;100854.13;4995505;28;20088;-90
2023/02/04 02:40:42;;;;;;;0.63;0.40;;;;;;;5.96;67.37;100831.13;4979600;28;20096;-89
2023/02/04 02:43:11;;;;;;;0.20;0.20;;;;;;;5.97;67.55;100832.81;4995652;28;20053;-91
2023/02/04 02:45:36;;;;;;;0.32;0.32;;;;;;;5.93;68.19;100845.78;4995734;28;20034;-90
2023/02/04 02:48:02;;;;;;;0.52;0.50;;;;;;;5.87;68.33;100835.63;4995894;28;20037;-91
2023/02/04 02:50:28;;;;;;;0.45;0.43;;;;;;;5.91;68.82;100839.84;4995460;28;20030;-90
2023/02/04 02:52:54;;;;;;;0.82;0.60;;;;;;;5.84;68.64;100821.16;4995634;28;20030;-89
2023/02/04 02:55:21;;;;;;;0.38;0.38;;;;;;;5.86;68.88;100826.22;4995048;28;20032;-89
2023/02/04 02:57:47;;;;;;;0.30;0.30;;;;;;;5.85;69.04;100835.66;4979392;28;20037;-90
2023/02/04 03:00:17;;;;;;;2.33;2.05;;;;;;;5.69;69.79;100827.50;4979227;28;20108;-90
2023/02/04 03:02:44;;;;;;;0.30;0.30;;;;;;;5.73;69.89;100836.00;4979290;28;20480;-90
2023/02/04 03:05:09;;;;;;;2.08;1.00;;;;;;;5.66;70.37;100821.63;4979452;28;20116;-90
2023/02/04 03:07:35;;;;;;;0.20;0.20;;;;;;;5.68;70.30;100830.97;4995198;28;20466;-90
2023/02/04 03:10:01;;;;;;;0.43;0.43;;;;;;;5.66;70.50;100819.06;4995366;28;20149;-90
2023/02/04 03:12:45;;;;;;;0.73;0.55;;;;;;;5.66;70.84;100826.75;4994804;28;20042;-90
2023/02/04 03:15:11;;;;;;;0.50;0.50;;;;;;;5.66;70.77;100813.91;4978556;28;20058;-89
2023/02/04 03:17:36;;;;;;;1.00;0.65;;;;;;;5.57;70.98;100804.72;4978795;28;20080;-90
2023/02/04 03:20:02;;;;;;;0.40;0.40;;;;;;;5.57;70.81;100809.00;4979004;28;20026;-90
2023/02/04 03:22:28;;;;;;;1.00;0.90;;;;;;;5.59;70.85;100813.22;4978705;28;20038;-90
2023/02/04 03:24:53;;;;;;;0.55;0.55;;;;;;;5.43;71.26;100786.28;4994600;28;20033;-90
2023/02/04 03:27:19;;;;;;;0.20;0.20;;;;;;;5.59;71.14;100795.25;4978905;28;20104;-89
2023/02/04 03:29:44;;;;;;;0.30;0.30;;;;;;;5.56;71.20;100797.06;4978429;28;20450;-88
2023/02/04 03:32:10;;;;;;;0.22;0.22;;;;;;;5.55;71.01;100803.94;4994844;28;20036;-90
2023/02/04 03:34:36;;;;;;;1.65;0.77;;;;;;;5.68;70.88;100809.59;4994880;28;20539;-89
2023/02/04 03:37:01;;;;;;;0.25;0.25;;;;;;;5.71;70.76;100806.97;4994589;28;20038;-89
2023/02/04 03:39:27;;;;;;;1.52;0.88;;;;;;;5.57;70.93;100783.34;4978386;28;20084;-91
2023/02/04 03:41:52;;;;;;;0.68;0.68;;;;;;;5.64;70.78;100796.00;4978500;28;20037;-90
2023/02/04 03:44:18;;;;;;;0.73;0.70;;;;;;;5.63;70.43;100780.63;4994463;28;20048;-90
2023/02/04 03:46:43;;;;;;;0.55;0.43;;;;;;;5.67;70.20;100792.50;4978072;28;20038;-88
2023/02/04 03:49:09;;;;;;;1.20;0.63;;;;;;;5.69;69.98;100789.00;4994465;28;20033;-89
2023/02/04 03:51:34;;;;;;;0.20;0.20;;;;;;;5.66;69.92;100801.94;4978360;28;20845;-90
2023/02/04 03:54:00;;;;;;;1.40;0.82;;;;;;;5.54;70.05;100788.56;4994290;28;20022;-90
2023/02/04 03:56:25;;;;;;;1.50;0.85;;;;;;;5.64;69.63;100802.84;4978274;28;20037;-88
2023/02/04 03:58:51;;;;;;;1.60;1.15;;;;;;;5.58;69.81;100815.81;4977987;28;20030;-91
2023/02/04 04:01:16;;;;;;;0.80;0.80;;;;;;;5.63;69.38;100809.72;4978087;28;20481;-90
2023/02/04 04:03:42;;;;;;;1.25;0.52;;;;;;;5.42;69.47;100780.31;4994132;28;20061;-89
2023/02/04 04:06:09;;;;;;;1.75;1.08;;;;;;;5.46;69.58;100793.91;4994035;28;20033;-90
2023/02/04 04:08:35;;;;;;;1.27;0.80;;;;;;;5.39;69.72;100806.03;4977870;28;20029;-89
2023/02/04 04:11:01;;;;;;;0.52;0.52;;;;;;;5.40;69.43;100805.13;4994167;28;20037;-90
2023/02/04 04:13:26;;;;;;;1.33;0.75;;;;;;;5.44;69.16;100804.19;4993741;28;20421;-90
2023/02/04 04:15:52;;;;;;;2.17;0.90;;;;;;;5.54;68.75;100809.09;4977911;28;20084;-91
2023/02/04 04:18:17;;;;;;;0.73;0.70;;;;;;;5.45;68.98;100813.59;4994289;28;20501;-90
2023/02/04 04:20:43;;;;;;;1.65;1.30;;;;;;;5.40;69.11;100792.31;4977803;28;20037;-90
2023/02/04 04:23:08;;;;;;;1.23;1.02;;;;;;;5.14;68.99;100746.81;4977888;28;20026;-90
2023/02/04 04:25:34;;;;;;;1.60;1.35;;;;;;;5.44;69.32;100798.22;4993963;28;20038;-89
2023/02/04 04:27:59;;;;;;;3.05;1.73;;;;;;;5.34;69.17;100789.06;4993775;28;20117;-90
2023/02/04 04:30:25;;;;;;;0.68;0.68;;;;;;;5.44;69.04;100788.81;4977904;28;20397;-90
2023/02/04 04:32:50;;;;;;;0.50;0.40;;;;;;;5.52;68.67;100805.75;4978088;28;20034;-90
2023/02/04 04:35:15;;;;;;;2.63;1.25;;;;;;;5.41;68.58;100801.72;4994111;28;20053;-90
2023/02/04 04:37:41;;;;;;;2.20;0.93;;;;;;;5.52;68.55;100806.59;4977608;28;20036;-90
2023/02/04 04:40:10;;;;;;;1.33;1.23;;;;;;;5.50;68.56;100807.47;4994249;28;20148;-90
2023/02/04 04:42:35;;;;;;;1.05;0.88;;;;;;;5.60;67.95;100803.78;4994089;28;20030;-90
2023/02/04 04:45:01;;;;;;;0.98;0.82;;;;;;;5.70;67.37;100810.38;4993750;28;20041;-89
2023/02/04 04:47:27;;;;;;;2.78;1.42;;;;;;;5.72;67.10;100812.03;4994071;28;20029;-89
2023/02/04 04:49:52;;;;;;;1.02;0.85;;;;;;;5.74;66.43;100806.88;4993583;28;20030;-91
2023/02/04 04:52:18;;;;;;;2.90;1.23;;;;;;;5.84;65.92;100813.44;4993778;28;20490;-90
2023/02/04 04:54:43;;;;;;;5.13;1.75;;;;;;;5.93;65.82;100838.91;4977552;28;20033;-89
2023/02/04 04:57:09;;;;;;;2.08;1.13;;;;;;;6.00;65.58;100830.19;4976966;28;20041;-89
2023/02/04 04:59:34;;;;;;;1.38;1.10;;;;;;;6.01;64.83;100831.84;4977453;28;20084;-89
2023/02/04 05:01:59;;;;;;;4.35;2.10;;;;;;;6.14;64.83;100857.19;4977463;28;20069;-90
2023/02/04 05:04:25;;;;;;;2.38;1.10;;;;;;;5.92;64.82;100818.41;4977481;28;20022;-91
2023/02/04 05:06:50;;;;;;;2.25;1.48;;;;;;;6.13;64.19;100860.66;4977246;28;20029;-90
2023/02/04 05:09:16;;;;;;;1.80;1.02;;;;;;;6.24;63.86;100871.47;4977167;28;20037;-89
2023/02/04 05:11:41;;;;;;;1.55;1.05;;;;;;;6.18;63.80;100869.06;4976835;28;20485;-90
2023/02/04 05:14:07;;;;;;;0.80;0.70;;;;;;;6.20;63.98;100867.31;4993042;28;20052;-88
2023/02/04 05:16:32;;;;;;;1.92;1.45;;;;;;;6.13;64.22;100847.81;4976951;28;20057;-90
2023/02/04 05:18:58;;;;;;;5.38;1.80;;;;;;;6.15;63.99;100839.19;4978162;28;20033;-90
2023/02/04 05:21:23;;;;;;;5.38;1.35;;;;;;;6.21;64.22;100845.88;4980853;28;20481;-90
2023/02/04 05:23:49;;;;;;;4.32;1.08;;;;;;;6.26;64.44;100844.00;4980759;28;20088;-90
2023/02/04 05:26:14;;;;;;;1.27;1.10;;;;;;;5.77;64.14;100791.38;4996708;28;20037;-90
2023/02/04 05:28:40;;;;;;;1.52;0.98;;;;;;;6.08;64.27;100829.09;4997238;28;20030;-89
2023/02/04 05:31:05;;;;;;;1.65;1.48;;;;;;;6.10;64.34;100845.34;4980888;28;20034;-89
2023/02/04 05:33:31;;;;;;;2.67;1.52;;;;;;;6.02;64.26;100827.56;4996817;28;20057;-90
2023/02/04 05:35:56;;;;;;;1.05;0.70;;;;;;;6.10;64.13;100845.34;4980564;28;20029;-90
2023/02/04 05:38:22;;;;;;;10.75;2.08;;;;;;;6.10;63.79;100830.75;4996769;28;20037;-92
2023/02/04 05:40:47;;;;;;;6.97;2.05;;;;;;;6.14;63.72;100834.91;4980414;28;20038;-91
2023/02/04 05:43:13;;;;;;;1.60;1.15;;;;;;;6.08;64.17;100836.81;4980377;28;20497;-90
2023/02/04 05:45:38;;;;;;;1.77;1.23;;;;;;;6.07;63.78;100835.13;4980455;28;20030;-90
2023/02/04 05:48:04;;;;;;;2.03;1.02;;;;;;;5.98;64.20;100829.34;4980440;28;20519;-89
2023/02/04 05:50:29;;;;;;;2.75;1.65;;;;;;;5.97;64.07;100840.50;4996569;28;20025;-91
2023/02/04 05:52:55;;;;;;;1.38;1.25;;;;;;;5.93;64.06;100827.81;4980452;28;20037;-90
2023/02/04 05:55:20;;;;;;;0.55;0.55;;;;;;;6.01;63.75;100847.25;4980265;28;20481;-90
2023/02/04 05:57:46;;;;;;;1.45;1.35;;;;;;;5.99;63.50;100849.00;4980303;28;20026;-90
2023/02/04 06:00:12;;;;;;;1.80;1.13;;;;;;;5.88;63.72;100853.56;4996467;28;20030;-90
2023/02/04 06:02:38;;;;;;;2.92;1.35;;;;;;;5.94;63.95;100860.28;4980310;28;20493;-90
2023/02/04 06:05:03;;;;;;;2.08;1.80;;;;;;;5.95;63.34;100856.84;4980057;28;20033;-88
2023/02/04 06:07:29;;;;;;;1.80;1.05;;;;;;;5.85;63.57;100866.47;4996297;28;20113;-90
2023/02/04 06:09:54;;;;;;;1.08;1.00;;;;;;;5.87;63.43;100859.56;4996068;28;20493;-90
2023/02/04 06:12:20;;;;;;;2.60;1.70;;;;;;;5.87;63.63;100862.13;4979886;28;20022;-91
2023/02/04 06:14:45;;;;;;;0.93;0.90;;;;;;;5.81;63.28;100854.63;4980279;28;20034;-90
2023/02/04 06:17:11;;;;;;;2.60;1.50;;;;;;;5.81;63.40;100858.91;4980069;28;20033;-89
2023/02/04 06:19:36;;;;;;;4.65;2.40;;;;;;;5.83;63.00;100868.25;4980045;28;20413;-90
2023/02/04 06:22:02;;;;;;;1.88;1.23;;;;;;;5.86;62.80;100865.59;4980070;28;20123;-91
2023/02/04 06:24:27;;;;;;;2.00;1.13;;;;;;;5.84;63.01;100875.06;4995848;28;20037;-89
2023/02/04 06:26:53;;;;;;;0.70;0.70;;;;;;;5.96;62.70;100885.03;4979643;28;20509;-90
2023/02/04 06:29:18;;;;;;;1.70;1.20;;;;;;;6.00;62.64;100881.53;4979741;28;20029;-90
2023/02/04 06:31:44;;;;;;;7.35;1.70;;;;;;;6.09;62.02;100870.16;4978648;28;20029;-89
2023/02/04 06:34:09;;;;;;;4.63;1.70;;;;;;;6.05;62.04;100881.41;4979556;28;20030;-90
2023/02/04 06:36:34;;;;;;;5.07;1.40;;;;;;;6.11;62.01;100893.25;4979779;28;20025;-90
2023/02/04 06:39:00;;;;;;;2.33;1.50;;;;;;;6.18;61.93;100889.63;4995500;28;20462;-90
2023/02/04 06:41:25;;;;;;;4.80;1.98;;;;;;;6.21;62.31;100890.41;4979606;28;20045;-90
2023/02/04 06:43:51;;;;;;;2.10;0.77;;;;;;;6.34;62.03;100888.34;4979443;28;20513;-89
2023/02/04 06:46:17;;;;;;;1.58;1.05;;;;;;;6.37;62.01;100893.38;4979569;28;20041;-90
2023/02/04 06:48:42;;;;;;;1.30;0.82;;;;;;;6.46;62.11;100885.41;4995693;28;20030;-90
2023/02/04 06:51:07;;;;;;;2.30;1.08;;;;;;;6.57;61.20;100898.81;4995486;28;20037;-89
2023/02/04 06:53:33;;;;;;;3.63;3.20;;;;;;;6.53;61.16;100907.50;4979110;28;20038;-90
2023/02/04 06:55:58;;;;;;;2.63;1.63;;;;;;;6.58;61.60;100900.50;4979120;28;20029;-89
2023/02/04 06:58:24;;;;;;;1.38;0.80;;;;;;;6.61;61.51;100894.44;4995623;28;20072;-90
2023/02/04 07:00:49;;;;;;;1.90;1.48;;;;;;;6.69;61.26;100892.50;4995451;28;20033;-89
2023/02/04 07:03:15;;;;;;;5.00;2.92;;;;;;;6.86;60.91;100899.72;4995100;28;20548;-89
2023/02/04 07:05:40;;;;;;;1.52;1.30;;;;;;;6.93;60.62;100901.22;4978928;28;20049;-90
2023/02/04 07:08:06;;;;;;;3.55;1.98;;;;;;;6.81;61.36;100896.44;4994927;28;20034;-89
2023/02/04 07:10:31;;;;;;;6.50;2.88;;;;;;;6.93;61.16;100901.22;4978569;28;20033;-90
2023/02/04 07:12:57;;;;;;;11.75;3.50;;;;;;;6.92;61.34;100890.97;4978639;28;20049;-90
2023/02/04 07:15:23;;;;;;;3.35;2.08;;;;;;;6.98;61.02;100894.22;4978769;28;20493;-90
2023/02/04 07:17:48;;;;;;;6.90;3.70;;;;;;;7.06;60.91;100892.25;4994877;28;20505;-90
2023/02/04 07:20:14;;;;;;;8.02;1.98;;;;;;;7.03;60.74;100892.34;4978178;28;20117;-91
2023/02/04 07:22:40;;;;;;;2.08;1.67;;;;;;;6.99;60.71;100885.63;4978953;28;20029;-89
2023/02/04 07:25:05;;;;;;;1.65;1.50;;;;;;;7.13;60.91;100904.03;4978417;28;20030;-90
2023/02/04 07:27:31;;;;;;;5.43;1.65;;;;;;;7.08;60.68;100899.91;4994556;28;20033;-89
2023/02/04 07:29:56;;;;;;;2.17;1.85;;;;;;;7.22;60.96;100881.50;4978337;28;20033;-89
2023/02/04 07:32:22;;;;;;;3.35;2.00;;;;;;;7.45;60.41;100884.19;4994722;28;20111;-90
2023/02/04 07:34:47;;;;;;;11.93;3.53;;;;;;;7.47;60.18;100866.94;4978070;28;20021;-90
2023/02/04 07:37:13;;;;;;;6.50;2.72;;;;;;;7.52;59.83;100875.38;4978522;28;20481;-90
2023/02/04 07:39:39;;;;;;;6.55;3.45;;;;;;;7.61;60.06;100875.09;4978497;28;20401;-90
2023/02/04 07:42:05;;;;;;;5.10;2.75;;;;;;;7.60;60.11;100875.97;4978255;28;20034;-90
2023/02/04 07:44:30;;;;;;;5.35;2.03;;;;;;;7.53;60.73;100873.66;4994677;28;20061;-90
2023/02/04 07:46:56;;;;;;;5.07;3.03;;;;;;;7.48;60.89;100861.78;4978230;28;20034;-90
2023/02/04 07:49:21;;;;;;;2.67;2.05;;;;;;;7.40;61.06;100866.31;4978081;28;20543;-90
2023/02/04 07:51:47;;;;;;;2.00;1.13;;;;;;;7.41;61.54;100844.84;4978151;28;20026;-90
2023/02/04 07:54:12;;;;;;;0.80;0.80;;;;;;;7.50;60.83;100866.88;4978174;28;20029;-91
2023/02/04 07:56:38;;;;;;;0.88;0.50;;;;;;;7.52;60.97;100867.66;4978131;28;20026;-90
2023/02/04 07:59:03;;;;;;;1.45;0.80;;;;;;;7.42;60.99;100859.38;4978103;28;20093;-89
2023/02/04 08:01:29;;;;;;;1.92;1.63;;;;;;;7.39;60.86;100869.78;4994178;28;20041;-89
2023/02/04 08:03:54;;;;;;;0.85;0.85;;;;;;;7.42;61.12;100868.84;4977583;28;20029;-89
2023/02/04 08:06:20;;;;;;;1.05;1.00;;;;;;;7.40;61.49;100862.91;4977834;28;20107;-90
2023/02/04 08:08:45;;;;;;;0.40;0.40;;;;;;;7.39;61.23;100863.81;4978171;28;20033;-89
2023/02/04 08:11:11;;;;;;;2.38;0.90;;;;;;;7.47;61.51;100859.22;4977881;28;20026;-91
2023/02/04 08:13:36;;;;;;;1.75;1.63;;;;;;;7.40;61.68;100855.19;4977690;28;20050;-89
2023/02/04 08:16:02;;;;;;;1.85;1.00;;;;;;;7.36;61.81;100853.59;4977741;28;20030;-90
2023/02/04 08:18:27;;;;;;;1.65;0.85;;;;;;;7.28;62.63;100858.16;4993797;28;20037;-89
2023/02/04 08:20:53;;;;;;;4.22;1.50;;;;;;;7.30;62.59;100858.94;4977757;28;20092;-90
2023/02/04 08:23:19;;;;;;;1.80;1.13;;;;;;;7.15;62.39;100855.94;4978033;28;20041;-90
2023/02/04 08:25:44;;;;;;;1.42;1.25;;;;;;;7.09;62.71;100851.00;4977748;28;20092;-89
2023/02/04 08:28:10;;;;;;;0.80;0.77;;;;;;;7.09;63.30;100856.16;4977913;28;20072;-90
2023/02/04 08:30:35;;;;;;;0.88;0.73;;;;;;;7.10;62.98;100847.53;4977417;28;20037;-89
2023/02/04 08:33:01;;;;;;;2.28;1.15;;;;;;;7.15;62.93;100845.66;4977373;28;20037;-89
2023/02/04 08:35:26;;;;;;;1.98;1.58;;;;;;;7.33;62.57;100848.53;4977355;28;20537;-90
2023/02/04 08:37:52;;;;;;;2.50;1.63;;;;;;;7.40;62.22;100850.03;4993504;28;20030;-89
2023/02/04 08:40:18;;;;;;;1.15;1.00;;;;;;;7.27;62.68;100841.84;4993490;28;20026;-89
2023/02/04 08:42:43;;;;;;;1.23;0.90;;;;;;;7.28;62.38;100860.72;4977474;28;20646;-89
2023/02/04 08:45:09;;;;;;;0.88;0.70;;;;;;;7.22;62.64;100855.75;4993607;28;20032;-89
2023/02/04 08:47:34;;;;;;;0.60;0.60;;;;;;;7.24;62.39;100869.41;4976884;28;20030;-89
2023/02/04 08:50:00;;;;;;;2.15;1.38;;;;;;;7.06;62.58;100858.81;4977416;28;20034;-89
2023/02/04 08:52:25;;;;;;;0.65;0.52;;;;;;;7.18;62.81;100873.03;4977331;28;20455;-90
2023/02/04 08:54:51;;;;;;;1.70;0.82;;;;;;;7.17;62.68;100859.31;4979727;28;20030;-91
2023/02/04 08:57:16;;;;;;;1.50;0.65;;;;;;;7.12;62.14;100843.19;4981550;28;20029;-91
2023/02/04 08:59:42;;;;;;;1.05;0.70;;;;;;;7.34;62.25;100871.66;4997551;28;20034;-90
2023/02/04 09:02:08;;;;;;;1.13;1.02;;;;;;;7.37;61.96;100868.97;4997639;28;20042;-90
2023/02/04 09:04:34;;;;;;;7.18;2.15;;;;;;;7.48;61.96;100863.50;4981058;28;20030;-89
2023/02/04 09:06:59;;;;;;;3.53;0.93;;;;;;;7.41;61.59;100864.59;4981117;28;20025;-89
2023/02/04 09:09:25;;;;;;;0.55;0.55;;;;;;;7.50;61.74;100877.16;4981112;28;20037;-90
2023/02/04 09:11:50;;;;;;;1.48;1.00;;;;;;;7.22;61.20;100840.31;4980502;28;20536;-90
2023/02/04 09:14:16;;;;;;;5.85;2.78;;;;;;;7.56;61.71;100882.09;4997179;28;20108;-90
2023/02/04 09:16:41;;;;;;;1.92;1.55;;;;;;;7.59;61.24;100861.44;4980967;28;20408;-92
2023/02/04 09:19:09;;;;;;;3.95;2.72;;;;;;;7.55;61.11;100874.44;4997202;28;20125;-89
2023/02/04 09:21:35;;;;;;;2.67;2.05;;;;;;;7.62;60.60;100881.06;4981591;28;20083;-90
2023/02/04 09:24:00;;;;;;;1.08;0.80;;;;;;;7.64;60.11;100892.16;4980789;28;20404;-90
2023/02/04 09:26:26;;;;;;;5.80;2.70;;;;;;;7.69;60.14;100891.13;4996929;28;20484;-89
2023/02/04 09:28:51;;;;;;;1.40;1.30;;;;;;;7.67;59.63;100890.34;4980306;28;20516;-90
2023/02/04 09:31:17;;;;;;;0.85;0.77;;;;;;;7.56;60.47;100894.97;4980302;28;20038;-89
2023/02/04 09:33:43;;;;;;;0.88;0.80;;;;;;;7.39;60.79;100885.25;4980633;28;20096;-90
2023/02/04 09:36:08;;;;;;;1.63;0.93;;;;;;;7.35;61.01;100886.19;4996719;28;20021;-89
2023/02/04 09:38:34;;;;;;;2.85;1.67;;;;;;;7.48;61.15;100899.56;4980302;28;20041;-89
2023/02/04 09:41:01;;;;;;;0.88;0.55;;;;;;;7.39;61.53;100890.38;4996694;28;20026;-89
2023/02/04 09:43:28;;;;;;;1.30;0.73;;;;;;;7.35;61.46;100887.94;4997302;28;20034;-90
2023/02/04 09:45:54;;;;;;;1.10;0.65;;;;;;;7.23;62.41;100878.03;4980342;28;20029;-90
2023/02/04 09:48:20;;;;;;;0.82;0.82;;;;;;;7.23;62.90;100875.47;4980608;28;20045;-89
2023/02/04 09:50:46;;;;;;;1.63;1.45;;;;;;;7.36;62.35;100869.03;4980262;28;20025;-90
2023/02/04 09:53:13;;;;;;;1.30;0.80;;;;;;;7.30;61.91;100870.09;4980477;28;20486;-89
2023/02/04 09:55:40;;;;;;;1.40;1.05;;;;;;;7.19;62.09;100867.84;4980222;28;20030;-89
2023/02/04 09:58:13;;;;;;;0.68;0.60;;;;;;;7.22;62.56;100861.75;4996610;28;20034;-88
2023/02/04 10:00:38;;;;;;;3.00;1.50;;;;;;;7.28;62.17;100863.31;4996111;28;20025;-89
2023/02/04 10:03:20;;;;;;;0.60;0.50;;;;;;;7.33;61.87;100874.28;4980179;28;20085;-90
2023/02/04 10:05:46;;;;;;;3.45;1.98;;;;;;;7.35;62.03;100857.06;4980541;28;20084;-90
2023/02/04 10:08:14;;;;;;;1.63;0.93;;;;;;;7.42;61.93;100863.69;4980179;28;20037;-89
2023/02/04 10:10:39;;;;;;;3.00;1.17;;;;;;;7.43;61.51;100867.94;4979942;28;20025;-90
2023/02/04 10:13:07;;;;;;;4.10;1.83;;;;;;;7.35;61.92;100860.47;4979767;28;20060;-90
2023/02/04 10:15:32;;;;;;;1.25;0.88;;;;;;;7.42;61.50;100866.28;4996094;28;20033;-90
2023/02/04 10:18:00;;;;;;;0.77;0.75;;;;;;;7.44;61.66;100843.88;4979655;28;20030;-89
2023/02/04 10:20:26;;;;;;;2.50;1.10;;;;;;;7.49;61.92;100852.31;4995750;28;20026;-89
2023/02/04 10:22:53;;;;;;;1.60;0.90;;;;;;;7.59;62.02;100845.13;4979764;28;20112;-90
2023/02/04 10:25:20;;;;;;;1.50;1.15;;;;;;;7.47;61.39;100846.34;4995937;28;20041;-89
2023/02/04 10:27:56;;;;;;;3.13;1.48;;;;;;;7.49;62.30;100849.75;4995793;28;20037;-90
2023/02/04 10:30:24;;;;;;;5.45;1.40;;;;;;;7.59;61.91;100855.44;4979318;28;20559;-89
2023/02/04 10:32:50;;;;;;;1.50;1.17;;;;;;;7.57;61.45;100859.78;4979418;28;20026;-90
2023/02/04 10:35:16;;;;;;;1.40;1.27;;;;;;;7.49;62.17;100844.59;4979425;28;20033;-89
2023/02/04 10:37:42;;;;;;;0.60;0.60;;;;;;;7.57;62.15;100857.19;4979506;28;20037;-89
2023/02/04 10:40:33;;;;;;;0.98;0.77;;;;;;;7.57;62.21;100860.63;4995720;28;20033;-90
2023/02/04 10:42:59;;;;;;;1.92;1.25;;;;;;;7.55;62.61;100853.84;4995763;28;20516;-90
2023/02/04 10:45:26;;;;;;;2.55;1.80;;;;;;;7.51;62.96;100857.41;4995334;28;20029;-90
2023/02/04 10:47:51;;;;;;;1.25;0.85;;;;;;;7.43;62.57;100861.06;4995873;28;20085;-91
2023/02/04 10:50:17;;;;;;;2.97;0.65;;;;;;;7.41;63.63;100851.72;4979502;28;20033;-91
2023/02/04 10:52:45;;;;;;;9.45;3.85;;;;;;;7.47;64.60;100841.19;4979467;28;20025;-90
2023/02/04 10:55:13;;;;;;;2.35;1.52;;;;;;;7.60;64.86;100845.09;4979429;28;20236;-90
2023/02/04 10:57:39;;;;;;;1.98;1.17;;;;;;;7.40;64.65;100844.91;4979121;28;20057;-89
2023/02/04 11:00:06;;;;;;;1.20;0.98;;;;;;;7.25;64.28;100850.50;4995236;28;20068;-90
2023/02/04 11:02:42;;;;;;;9.23;2.58;;;;;;;7.21;65.54;100812.91;4979531;28;20521;-90
2023/02/04 11:05:19;;;;;;;3.95;2.45;;;;;;;7.33;64.31;100866.56;4995568;28;20034;-91
2023/02/04 11:07:45;;;;;;;2.63;1.95;;;;;;;7.30;65.07;100859.78;4979028;28;20092;-90
2023/02/04 11:10:15;;;;;;;0.85;0.82;;;;;;;7.33;64.63;100859.69;4995299;28;20128;-91
2023/02/04 11:12:46;;;;;;;1.83;1.73;;;;;;;7.29;66.88;100872.72;4979203;28;20065;-92
2023/02/04 11:15:44;;;;;;;1.80;1.10;;;;;;;7.24;66.09;100864.28;4996136;28;20493;-91
2023/02/04 11:18:11;;;;;;;1.27;1.17;;;;;;;7.14;67.54;100856.84;4979080;28;20040;-92
2023/02/04 11:20:38;;;;;;;5.07;2.10;;;;;;;6.87;66.41;100824.25;4979827;28;20084;-90
2023/02/04 11:23:16;;;;;;;2.53;1.30;;;;;;;6.99;68.11;100864.19;4979693;28;20030;-91
2023/02/04 11:25:42;;;;;;;1.17;1.02;;;;;;;7.06;71.40;100851.09;4995210;28;20034;-93
2023/02/04 11:28:15;;;;;;;1.00;0.93;;;;;;;6.88;69.29;100842.22;4995132;28;20463;-93
2023/02/04 11:30:41;;;;;;;3.67;1.08;;;;;;;6.90;69.58;100824.16;4979234;28;20034;-91